Time;durP1;ratioP1;P1;durP2;ratioP2;P2;SDS_P1;SDS_P2;PMS_P1;PMS_P2;Temp;Humidity;BMP_temperature;BMP_pressure;BME280_temperature;BME280_humidity;BME280_pressure;Samples;Min_cycle;Max_cycle;Signal;HPM_P1;HPM_P2
2021/12/29 00:00:57;;;;;;;38.20;25.70;;;;;;;-4.38;89.45;98287.84;1802791;77;20989;-59
2021/12/29 00:03:23;;;;;;;41.63;25.97;;;;;;;-4.39;89.42;98295.91;1809132;77;20899;-59
2021/12/29 00:05:50;;;;;;;39.63;27.37;;;;;;;-4.39;89.43;98285.72;1813998;77;21193;-59
2021/12/29 00:08:16;;;;;;;42.87;27.13;;;;;;;-4.41;89.44;98283.61;1807959;77;21412;-59
2021/12/29 00:10:43;;;;;;;36.17;22.23;;;;;;;-4.41;89.39;98287.44;1803935;77;21268;-59
2021/12/29 00:13:10;;;;;;;43.25;26.85;;;;;;;-4.42;89.39;98287.47;1796183;77;20970;-59
2021/12/29 00:15:36;;;;;;;46.10;27.40;;;;;;;-4.44;89.39;98278.98;1795375;78;21033;-60
2021/12/29 00:18:04;;;;;;;43.33;27.70;;;;;;;-4.45;89.39;98287.06;1808860;77;21313;-59
2021/12/29 00:20:32;;;;;;;45.25;26.85;;;;;;;-4.47;89.39;98279.86;1794739;77;20987;-59
2021/12/29 00:23:01;;;;;;;;;;;;;;;-4.47;89.44;98284.95;1786512;78;21464;-59
2021/12/29 00:25:28;;;;;;;41.70;25.77;;;;;;;-4.45;89.43;98290.89;1786773;76;20474;-59
2021/12/29 00:27:55;;;;;;;;;;;;;;;-4.46;89.40;98282.81;1823315;77;20879;-59
2021/12/29 00:30:23;;;;;;;37.93;21.68;;;;;;;-4.47;89.36;98276.47;1819842;77;20159;-59
2021/12/29 00:32:50;;;;;;;46.28;28.90;;;;;;;-4.49;89.42;98273.92;1762054;79;20930;-59
2021/12/29 00:35:17;;;;;;;45.60;27.22;;;;;;;-4.51;89.43;98278.19;1750308;80;21115;-59
2021/12/29 00:37:43;;;;;;;41.77;26.00;;;;;;;-4.52;89.48;98276.51;1739243;80;21549;-59
2021/12/29 00:40:12;;;;;;;42.23;24.67;;;;;;;-4.53;89.47;98286.30;1740892;80;21481;-59
2021/12/29 00:42:38;;;;;;;48.28;28.95;;;;;;;-4.53;89.52;98279.92;1756482;79;20898;-59
2021/12/29 00:45:07;;;;;;;38.70;22.33;;;;;;;-4.54;89.55;98287.13;1737961;80;21511;-59
2021/12/29 00:47:36;;;;;;;39.80;26.95;;;;;;;-4.53;89.58;98282.47;1737111;81;21910;-59
2021/12/29 00:50:09;;;;;;;42.78;29.20;;;;;;;-4.53;89.51;98290.11;1747376;80;21456;-59
2021/12/29 00:52:36;;;;;;;44.45;28.92;;;;;;;-4.52;89.57;98294.34;1748734;80;21076;-59
2021/12/29 00:55:04;;;;;;;43.68;29.00;;;;;;;-4.50;89.58;98286.26;1744265;79;20969;-59
2021/12/29 00:57:31;;;;;;;49.75;28.60;;;;;;;-4.50;89.56;98296.02;1817391;77;21587;-59
2021/12/29 00:59:59;;;;;;;41.80;27.67;;;;;;;-4.49;89.54;98301.95;1809316;77;21064;-59
2021/12/29 01:02:26;;;;;;;43.52;26.52;;;;;;;-4.49;89.57;98299.41;1798905;78;20934;-59
2021/12/29 01:04:53;;;;;;;41.13;26.97;;;;;;;-4.51;89.61;98294.74;1795585;78;20907;-59
2021/12/29 01:07:20;;;;;;;49.00;26.50;;;;;;;-4.51;89.67;98298.56;1757160;80;20917;-59
2021/12/29 01:09:47;;;;;;;46.88;25.82;;;;;;;-4.51;89.70;98301.11;1781218;79;21420;-60
2021/12/29 01:12:15;;;;;;;38.30;21.82;;;;;;;-4.49;89.68;98299.41;1798765;77;21225;-59
2021/12/29 01:14:44;;;;;;;42.45;26.77;;;;;;;-4.47;89.61;98302.78;1762532;79;20916;-59
2021/12/29 01:17:10;;;;;;;44.15;27.93;;;;;;;-4.46;89.58;98304.46;1776525;78;21013;-59
2021/12/29 01:19:38;;;;;;;38.20;26.25;;;;;;;-4.45;89.60;98305.30;1763645;80;20947;-59
2021/12/29 01:22:05;;;;;;;45.85;28.38;;;;;;;-4.43;89.60;98300.61;1736203;80;21015;-59
2021/12/29 01:24:32;;;;;;;40.50;26.93;;;;;;;-4.42;89.57;98306.14;1747069;80;21264;-59
2021/12/29 01:26:59;;;;;;;39.98;24.35;;;;;;;-4.41;89.53;98305.27;1808480;77;21391;-59
2021/12/29 01:29:26;;;;;;;;;;;;;;;-4.40;89.51;98305.67;1807373;77;20971;-59
2021/12/29 01:31:53;;;;;;;42.00;25.85;;;;;;;-4.39;89.51;98306.11;1799498;78;20109;-59
2021/12/29 01:34:20;;;;;;;38.80;25.72;;;;;;;-4.39;89.54;98293.80;1807397;77;21651;-59
2021/12/29 01:36:48;;;;;;;37.33;24.12;;;;;;;-4.38;89.56;98295.05;1798892;77;39038;-59
2021/12/29 01:39:16;;;;;;;39.20;22.20;;;;;;;-4.37;89.52;98296.75;1798705;77;20911;-59
2021/12/29 01:41:47;;;;;;;39.15;26.97;;;;;;;-4.37;89.44;98299.30;1790987;77;21057;-59
2021/12/29 01:44:17;;;;;;;37.65;25.45;;;;;;;-4.38;89.47;98305.23;1802719;77;20892;-60
2021/12/29 01:46:45;;;;;;;39.73;24.57;;;;;;;-4.43;89.66;98309.52;1794244;78;20940;-59
2021/12/29 01:49:12;;;;;;;39.00;24.32;;;;;;;-4.46;89.66;98299.37;1780846;79;21091;-59
2021/12/29 01:51:48;;;;;;;38.83;24.70;;;;;;;-4.48;89.74;98299.84;1807691;77;20917;-59
2021/12/29 01:54:16;;;;;;;44.40;27.85;;;;;;;-4.49;89.77;98301.95;1812526;77;20907;-59
2021/12/29 01:56:45;;;;;;;38.92;23.52;;;;;;;-4.49;89.81;98307.05;1750992;80;20957;-59
2021/12/29 01:59:14;;;;;;;44.93;26.30;;;;;;;-4.49;89.81;98314.69;1806918;77;20909;-59
2021/12/29 02:01:42;;;;;;;35.08;20.72;;;;;;;-4.51;89.82;98314.72;1803029;77;21737;-59
2021/12/29 02:04:09;;;;;;;43.20;26.02;;;;;;;-4.50;89.79;98313.01;1805867;77;20888;-59
2021/12/29 02:06:36;;;;;;;42.35;27.58;;;;;;;-4.52;89.80;98324.47;1794692;78;21316;-59
2021/12/29 02:09:05;;;;;;;40.20;24.90;;;;;;;-4.51;89.83;98316.39;1815868;77;22314;-59
2021/12/29 02:11:34;;;;;;;40.83;25.70;;;;;;;-4.51;89.84;98307.48;1759172;80;20994;-59
2021/12/29 02:14:04;;;;;;;36.23;24.90;;;;;;;-4.51;89.82;98316.39;1801511;77;21977;-59
2021/12/29 02:16:31;;;;;;;38.48;25.75;;;;;;;-4.53;89.83;98308.78;1815143;77;20880;-59
2021/12/29 02:19:01;;;;;;;38.45;25.95;;;;;;;-4.52;89.85;98312.17;1777932;79;21472;-59
2021/12/29 02:21:29;;;;;;;34.60;22.60;;;;;;;-4.51;89.88;98318.54;1756876;79;21486;-59
2021/12/29 02:26:33;;;;;;;45.45;26.97;;;;;;;-4.51;89.80;98324.04;1797907;78;21617;-60
2021/12/29 02:29:03;;;;;;;40.83;25.35;;;;;;;-4.53;89.80;98321.95;1810364;77;20935;-59
2021/12/29 02:31:30;;;;;;;45.12;28.67;;;;;;;-4.52;89.83;98332.55;1808933;77;20937;-59
2021/12/29 02:33:59;;;;;;;42.30;27.00;;;;;;;-4.53;89.84;98331.71;1811045;77;20922;-59
2021/12/29 02:36:27;;;;;;;44.90;29.18;;;;;;;-4.51;89.86;98335.50;1807530;77;20910;-59
2021/12/29 02:38:55;;;;;;;47.05;26.85;;;;;;;-4.50;89.86;98335.94;1797950;78;21927;-59
2021/12/29 02:41:26;;;;;;;41.92;25.82;;;;;;;-4.50;89.88;98346.13;1785730;79;21510;-59
2021/12/29 02:43:59;;;;;;;43.42;28.42;;;;;;;-4.48;89.86;98336.77;1757982;79;20903;-59
2021/12/29 02:46:23;;;;;;;42.88;27.93;;;;;;;-4.47;89.89;98343.55;1768920;80;20912;-59
2021/12/29 02:49:02;;;;;;;44.90;29.30;;;;;;;-4.44;89.90;98330.78;1761467;79;20919;-59
2021/12/29 02:51:31;;;;;;;41.65;29.32;;;;;;;-4.42;89.86;98323.98;1752014;80;21815;-60
2021/12/29 02:53:58;;;;;;;44.77;29.95;;;;;;;-4.43;89.80;98319.72;1735578;80;21030;-59
2021/12/29 02:56:26;;;;;;;44.45;30.97;;;;;;;-4.43;89.81;98318.44;1806070;77;21068;-59
2021/12/29 02:58:58;;;;;;;49.20;28.70;;;;;;;-4.41;89.83;98320.55;1804957;77;20943;-60
2021/12/29 03:01:27;;;;;;;44.30;30.15;;;;;;;-4.40;89.80;98319.69;1809490;77;20878;-59
2021/12/29 03:03:56;;;;;;;46.45;30.52;;;;;;;-4.42;89.80;98325.25;1812547;77;21584;-59
2021/12/29 03:06:23;;;;;;;43.55;29.63;;;;;;;-4.43;89.78;98333.73;1771446;80;21024;-59
2021/12/29 03:08:50;;;;;;;48.85;30.25;;;;;;;-4.43;89.84;98319.72;1746122;79;20954;-59
2021/12/29 03:11:17;;;;;;;41.80;29.30;;;;;;;-4.42;89.86;98320.16;1746263;80;20916;-59
2021/12/29 03:13:44;;;;;;;44.73;28.10;;;;;;;-4.42;89.86;98320.16;1760973;80;21496;-59
2021/12/29 03:16:11;;;;;;;47.07;28.07;;;;;;;-4.42;89.82;98334.17;1719495;80;21095;-59
2021/12/29 03:18:38;;;;;;;50.83;31.17;;;;;;;-4.42;89.80;98330.34;1795651;77;20935;-59
2021/12/29 03:21:06;;;;;;;51.37;32.40;;;;;;;-4.43;89.81;98332.45;1808638;77;21879;-59
2021/12/29 03:23:33;;;;;;;48.15;31.30;;;;;;;-4.43;89.81;98327.36;1804106;77;20922;-59
2021/12/29 03:26:01;;;;;;;47.85;30.50;;;;;;;-4.43;89.83;98333.73;1804541;77;20901;-59
2021/12/29 03:28:28;;;;;;;48.63;28.40;;;;;;;-4.43;89.83;98329.91;1800327;77;21070;-59
2021/12/29 03:30:56;;;;;;;52.60;32.30;;;;;;;-4.44;89.80;98328.23;1755385;80;20992;-60
2021/12/29 03:33:24;;;;;;;;;;;;;;;-4.45;89.89;98334.20;1746509;80;21340;-59
2021/12/29 03:35:55;;;;;;;52.62;30.97;;;;;;;-4.44;89.91;98332.48;1741920;80;20118;-60
2021/12/29 03:38:25;;;;;;;42.55;28.38;;;;;;;-4.43;89.93;98340.10;1745076;80;20919;-59
2021/12/29 03:40:53;;;;;;;47.65;32.13;;;;;;;-4.41;89.99;98340.94;1743193;80;21163;-59
2021/12/29 03:43:22;;;;;;;49.48;31.50;;;;;;;-4.40;89.97;98350.27;1729235;80;21891;-59
2021/12/29 03:45:53;;;;;;;49.70;32.05;;;;;;;-4.39;90.00;98349.42;1740926;80;21551;-60
2021/12/29 03:48:23;;;;;;;45.60;31.85;;;;;;;-4.39;89.95;98346.87;1737082;80;20979;-59
2021/12/29 03:50:50;;;;;;;52.40;31.15;;;;;;;-4.36;90.02;98350.66;1744689;80;20978;-60
2021/12/29 03:53:17;;;;;;;51.55;32.08;;;;;;;-4.35;89.96;98349.80;1748283;80;22155;-60
2021/12/29 03:55:48;;;;;;;44.03;24.67;;;;;;;-4.34;89.97;98339.16;1785930;77;20892;-59
2021/12/29 03:58:15;;;;;;;50.23;31.60;;;;;;;-4.34;89.95;98345.13;1806625;77;21101;-59
2021/12/29 04:00:42;;;;;;;53.33;31.95;;;;;;;-4.35;90.00;98335.78;1770279;78;20930;-60
2021/12/29 04:03:09;;;;;;;55.78;33.67;;;;;;;-4.32;90.02;98347.65;1756323;80;21018;-59
2021/12/29 04:05:35;;;;;;;46.63;31.10;;;;;;;-4.32;90.00;98340.84;1750891;80;21952;-60
2021/12/29 04:08:03;;;;;;;52.90;32.73;;;;;;;-4.31;90.05;98336.18;1741378;80;20913;-59
2021/12/29 04:10:31;;;;;;;54.50;32.85;;;;;;;-4.31;90.02;98334.91;1742523;80;20914;-59
2021/12/29 04:12:59;;;;;;;42.93;27.37;;;;;;;-4.31;90.07;98337.45;1743530;78;20930;-59
2021/12/29 04:15:27;;;;;;;46.00;29.90;;;;;;;-4.29;90.07;98334.44;1734856;80;21496;-59
2021/12/29 04:18:04;;;;;;;47.15;31.62;;;;;;;-4.29;90.03;98331.89;1739785;80;21093;-59
2021/12/29 04:23:15;;;;;;;51.55;32.13;;;;;;;-4.29;90.06;98341.24;1750477;80;20968;-59
2021/12/29 04:25:46;;;;;;;47.55;31.25;;;;;;;-4.29;90.11;98338.26;1749700;79;21014;-59
2021/12/29 04:28:20;;;;;;;52.83;31.85;;;;;;;-4.28;90.08;98329.78;1765106;80;20869;-59
2021/12/29 04:30:43;;;;;;;54.77;34.00;;;;;;;-4.29;90.08;98333.16;1743367;79;21108;-59
2021/12/29 04:33:10;;;;;;;50.27;32.17;;;;;;;-4.30;90.07;98335.31;1765915;79;21480;-59
2021/12/29 04:35:37;;;;;;;48.73;30.03;;;;;;;-4.28;90.13;98332.33;1779806;78;20948;-60
2021/12/29 04:38:04;;;;;;;49.17;31.23;;;;;;;-4.26;90.16;98332.30;1770682;79;20903;-59
2021/12/29 04:40:31;;;;;;;49.38;32.05;;;;;;;-4.25;90.15;98328.06;1766145;79;21023;-59
2021/12/29 04:42:58;;;;;;;52.53;31.27;;;;;;;-4.25;90.21;98344.19;1792786;79;21126;-59
2021/12/29 04:45:25;;;;;;;53.40;33.10;;;;;;;-4.24;90.20;98346.30;1806138;77;21439;-59
2021/12/29 04:47:52;;;;;;;50.73;32.03;;;;;;;-4.22;90.25;98348.42;1807909;77;20874;-59
2021/12/29 04:50:28;;;;;;;52.27;32.40;;;;;;;-4.19;90.25;98343.29;1801308;77;20931;-60
2021/12/29 04:52:57;;;;;;;53.23;32.23;;;;;;;-4.18;90.20;98344.97;1804034;77;20915;-59
2021/12/29 04:55:25;;;;;;;48.87;31.57;;;;;;;-4.16;90.21;98345.37;1812912;77;21035;-59
2021/12/29 04:57:53;;;;;;;50.43;32.00;;;;;;;-4.15;90.21;98346.20;1812187;77;20911;-59
2021/12/29 05:00:24;;;;;;;52.13;33.30;;;;;;;-4.14;90.21;98341.54;1797533;77;21469;-59
2021/12/29 05:02:52;;;;;;;55.28;32.90;;;;;;;-4.12;90.24;98343.19;1802535;77;21473;-59
2021/12/29 05:10:44;;;;;;;54.75;31.27;;;;;;;-4.03;90.40;98352.47;1803085;77;20955;-59
2021/12/29 05:13:10;;;;;;;57.53;32.50;;;;;;;-4.00;90.43;98347.33;1808077;77;21461;-59
2021/12/29 05:15:37;;;;;;;53.17;32.00;;;;;;;-3.99;90.47;98343.91;1818701;77;20943;-59
2021/12/29 05:18:04;;;;;;;53.40;29.80;;;;;;;-3.97;90.48;98347.30;1793318;77;20891;-59
2021/12/29 05:20:32;;;;;;;55.75;34.05;;;;;;;-3.94;90.58;98345.98;1806802;77;21778;-60
2021/12/29 05:22:59;;;;;;;;;;;;;;;-3.91;90.62;98353.59;1776152;79;20913;-59
2021/12/29 05:25:27;;;;;;;;;;;;;;;-3.88;90.62;98357.39;1742064;80;20081;-59
2021/12/29 05:27:54;;;;;;;50.48;29.57;;;;;;;-3.88;90.62;98354.84;1770651;79;20127;-59
2021/12/29 05:30:21;;;;;;;51.65;30.62;;;;;;;-3.87;90.69;98353.97;1767702;79;21484;-59
2021/12/29 05:32:48;;;;;;;49.13;30.72;;;;;;;-3.84;90.71;98348.86;1768072;79;27356;-59
2021/12/29 05:35:16;;;;;;;53.60;31.53;;;;;;;-3.83;90.70;98350.53;1773059;79;20896;-59
2021/12/29 05:37:43;;;;;;;;;;;;;;;-3.82;90.67;98349.66;1784580;79;21514;-59
2021/12/29 05:40:12;;;;;;;50.08;31.60;;;;;;;-3.80;90.72;98353.92;1801382;77;20505;-59
2021/12/29 05:42:38;;;;;;;49.40;29.98;;;;;;;-3.78;90.74;98354.72;1807357;77;20883;-59
2021/12/29 05:45:09;;;;;;;52.37;30.10;;;;;;;-3.78;90.74;98351.77;1814738;77;21092;-59
2021/12/29 05:47:37;;;;;;;50.95;31.75;;;;;;;-3.77;90.75;98351.33;1783180;77;20938;-59
2021/12/29 05:50:07;;;;;;;52.55;32.83;;;;;;;-3.77;90.78;98354.72;1795091;77;20905;-59
2021/12/29 05:52:34;;;;;;;51.92;32.30;;;;;;;-3.78;90.75;98362.37;1800364;77;21084;-59
2021/12/29 05:55:01;;;;;;;54.27;31.25;;;;;;;-3.78;90.77;98357.27;1802213;77;21077;-60
2021/12/29 05:57:28;;;;;;;44.30;27.90;;;;;;;-3.76;90.78;98364.48;1815407;77;21029;-59
2021/12/29 05:59:54;;;;;;;45.83;29.70;;;;;;;-3.78;90.72;98367.48;1810490;77;20903;-59
2021/12/29 06:02:21;;;;;;;53.08;34.95;;;;;;;-3.79;90.74;98378.55;1809329;77;20875;-59
2021/12/29 06:04:48;;;;;;;61.05;35.75;;;;;;;-3.79;90.73;98381.10;1813183;77;20945;-59
2021/12/29 06:07:15;;;;;;;60.57;32.53;;;;;;;-3.80;90.66;98384.52;1818254;77;20978;-59
2021/12/29 06:09:42;;;;;;;60.05;32.93;;;;;;;-3.80;90.76;98388.35;1806529;77;21061;-59
2021/12/29 06:12:09;;;;;;;;;;;;;;;-3.78;90.76;98390.43;1745198;79;20930;-59
2021/12/29 06:14:35;;;;;;;49.40;30.75;;;;;;;-3.77;90.71;98390.86;1737159;80;20462;-59
2021/12/29 06:17:03;;;;;;;52.57;32.00;;;;;;;-3.78;90.70;98391.30;1806228;77;20922;-59
2021/12/29 06:19:30;;;;;;;46.08;30.30;;;;;;;-3.79;90.71;98397.24;1802898;77;21128;-59
2021/12/29 06:21:57;;;;;;;52.10;30.37;;;;;;;-3.80;90.74;98396.00;1817763;77;21194;-59
2021/12/29 06:24:24;;;;;;;59.03;32.73;;;;;;;-3.78;90.73;98395.53;1809127;77;20961;-60
2021/12/29 06:26:50;;;;;;;53.42;32.60;;;;;;;-3.78;90.72;98392.98;1806213;77;20959;-60
2021/12/29 06:29:17;;;;;;;55.17;32.60;;;;;;;-3.79;90.74;98397.68;1816494;77;20976;-60
2021/12/29 06:31:46;;;;;;;57.73;33.23;;;;;;;-3.77;90.75;98397.24;1815487;77;20979;-60
2021/12/29 06:34:13;;;;;;;52.62;34.03;;;;;;;-3.77;90.74;98393.41;1814164;77;21085;-60
2021/12/29 06:36:40;;;;;;;53.83;32.33;;;;;;;-3.77;90.70;98397.24;1803265;77;20914;-60
2021/12/29 06:39:07;;;;;;;55.67;32.83;;;;;;;-3.84;90.68;98388.79;1789515;77;20879;-60
2021/12/29 06:41:34;;;;;;;51.73;31.15;;;;;;;-3.77;90.76;98395.53;1803768;77;20916;-60
2021/12/29 06:44:02;;;;;;;54.67;32.90;;;;;;;-3.77;90.72;98399.80;1805524;77;20981;-59
2021/12/29 06:46:28;;;;;;;54.70;32.50;;;;;;;-3.75;90.78;98405.70;1817337;77;21585;-60
2021/12/29 06:48:55;;;;;;;53.83;32.80;;;;;;;-3.72;90.83;98405.69;1818174;77;20867;-60
2021/12/29 06:51:22;;;;;;;49.27;30.25;;;;;;;-3.71;90.85;98398.44;1798286;77;21179;-60
2021/12/29 06:53:49;;;;;;;52.03;32.13;;;;;;;-3.70;90.79;98408.61;1803378;77;21517;-59
2021/12/29 06:56:16;;;;;;;55.70;32.98;;;;;;;-3.72;90.76;98403.14;1803737;77;20940;-60
2021/12/29 06:58:43;;;;;;;60.63;34.55;;;;;;;-3.72;90.83;98412.07;1825431;77;21938;-60
2021/12/29 07:01:09;;;;;;;56.77;34.03;;;;;;;-3.71;90.83;98407.37;1804214;77;20919;-59
2021/12/29 07:03:38;;;;;;;54.87;33.83;;;;;;;-3.71;90.80;98408.64;1797146;78;20983;-59
2021/12/29 07:06:05;;;;;;;57.73;34.40;;;;;;;-3.72;90.85;98415.89;1803718;78;21652;-59
2021/12/29 07:08:32;;;;;;;53.93;33.37;;;;;;;-3.72;90.92;98429.48;1810609;77;21766;-59
2021/12/29 07:11:00;;;;;;;57.48;32.93;;;;;;;-3.72;90.92;98429.48;1803796;77;21958;-59
2021/12/29 07:13:26;;;;;;;;;;;;;;;-3.69;90.96;98433.72;1816122;77;20880;-59
2021/12/29 07:15:53;;;;;;;57.63;32.10;;;;;;;-3.68;90.95;98430.30;1798618;77;20118;-59
2021/12/29 07:18:19;;;;;;;57.60;34.08;;;;;;;-3.68;90.94;98440.50;1805946;77;21110;-59
2021/12/29 07:20:46;;;;;;;51.63;29.97;;;;;;;-3.67;90.97;98439.63;1808196;77;21579;-58
2021/12/29 07:23:13;;;;;;;54.42;31.17;;;;;;;-3.63;90.98;98445.13;1811089;77;21064;-59
2021/12/29 07:25:40;;;;;;;48.87;32.23;;;;;;;-3.61;90.99;98439.59;1807332;77;20935;-59
2021/12/29 07:28:07;;;;;;;55.73;31.02;;;;;;;-3.59;90.95;98448.05;1817198;77;21525;-59
2021/12/29 07:30:33;;;;;;;48.23;31.67;;;;;;;-3.58;90.97;98444.65;1806693;77;20879;-59
2021/12/29 07:33:00;;;;;;;56.90;32.67;;;;;;;-3.53;90.93;98450.52;1808680;77;20954;-59
2021/12/29 07:35:27;;;;;;;184.00;102.97;;;;;;;-3.49;90.95;98458.58;1807449;77;21083;-59
2021/12/29 07:37:54;;;;;;;98.12;60.25;;;;;;;-3.47;90.91;98460.69;1807520;77;21447;-59
2021/12/29 07:40:21;;;;;;;90.28;57.75;;;;;;;-3.44;90.89;98465.75;1804829;77;21572;-59
2021/12/29 07:42:48;;;;;;;96.08;63.87;;;;;;;-3.42;90.92;98464.03;1801012;77;20906;-59
2021/12/29 07:45:16;;;;;;;135.40;83.78;;;;;;;-3.40;90.94;98464.84;1808780;77;20915;-59
2021/12/29 07:47:49;;;;;;;297.45;202.65;;;;;;;-3.38;90.92;98458.02;1797756;77;22121;-59
2021/12/29 07:50:12;;;;;;;231.02;142.40;;;;;;;-3.36;90.93;98458.02;1804850;77;20902;-59
2021/12/29 07:52:39;;;;;;;;;;;;;;;-3.33;90.94;98444.34;1753315;79;20951;-59
2021/12/29 07:55:07;;;;;;;138.23;90.10;;;;;;;-3.31;90.92;98455.39;1762002;80;20774;-59
2021/12/29 07:57:33;;;;;;;141.90;97.42;;;;;;;-3.28;90.96;98457.91;1747239;80;20961;-59
2021/12/29 08:00:00;;;;;;;160.97;112.43;;;;;;;-3.26;90.85;98461.30;1776856;79;22499;-59
2021/12/29 08:02:27;;;;;;;110.37;77.03;;;;;;;-3.25;90.87;98461.70;1770106;79;20897;-59
2021/12/29 08:04:55;;;;;;;100.75;70.90;;;;;;;-3.24;90.87;98457.02;1762825;80;20927;-59
2021/12/29 08:07:22;;;;;;;83.42;58.05;;;;;;;-3.19;90.91;98464.20;1747388;81;20978;-59
2021/12/29 08:09:49;;;;;;;63.42;42.10;;;;;;;-3.19;90.84;98461.20;1802451;77;20932;-59
2021/12/29 08:12:16;;;;;;;111.10;63.10;;;;;;;-3.15;90.88;98465.84;1813707;77;21889;-59
2021/12/29 08:14:45;;;;;;;74.10;50.73;;;;;;;-3.13;90.85;98462.00;1772432;79;20975;-59
2021/12/29 08:17:13;;;;;;;78.60;54.88;;;;;;;-3.15;90.75;98465.84;1817720;77;20915;-59
2021/12/29 08:19:40;;;;;;;81.95;54.08;;;;;;;-3.15;90.77;98465.84;1819037;77;21770;-59
2021/12/29 08:22:07;;;;;;;76.77;54.27;;;;;;;-3.13;90.85;98462.84;1808904;77;21414;-59
2021/12/29 08:24:34;;;;;;;90.70;66.85;;;;;;;-3.11;90.82;98475.13;1810174;77;21877;-59
2021/12/29 08:27:01;;;;;;;89.03;64.80;;;;;;;-3.09;90.82;98473.41;1802400;77;20933;-59
2021/12/29 08:29:27;;;;;;;94.72;59.85;;;;;;;-3.08;90.75;98468.74;1804237;77;20883;-59
2021/12/29 08:31:56;;;;;;;92.02;57.45;;;;;;;-3.09;90.75;98472.14;1797784;77;21474;-59
2021/12/29 08:34:23;;;;;;;76.82;48.83;;;;;;;-3.10;90.84;98465.36;1810670;77;21493;-59
2021/12/29 08:36:50;;;;;;;87.80;53.08;;;;;;;-3.10;90.80;98478.12;1802349;77;21114;-59
2021/12/29 08:39:18;;;;;;;80.07;47.85;;;;;;;-3.09;90.89;98490.02;1800513;77;20937;-59
2021/12/29 08:41:48;;;;;;;95.38;56.37;;;;;;;-3.07;90.89;98495.95;1776557;77;20949;-59
2021/12/29 08:44:15;;;;;;;87.10;52.45;;;;;;;-3.05;90.86;98499.34;1785179;78;20903;-59
2021/12/29 08:46:43;;;;;;;113.88;65.92;;;;;;;-3.01;90.88;98498.42;1755449;79;20914;-59
2021/12/29 08:49:10;;;;;;;;;;;;;;;-2.98;90.88;98500.94;1806643;77;21161;-59
2021/12/29 08:51:36;;;;;;;106.78;61.25;;;;;;;-2.93;90.95;98494.07;1816828;77;20224;-59
2021/12/29 08:54:03;;;;;;;93.90;51.50;;;;;;;-2.86;91.02;98499.09;1809162;77;21385;-59
2021/12/29 08:56:30;;;;;;;105.03;64.03;;;;;;;-2.79;90.99;98500.72;1810461;77;21529;-59
2021/12/29 08:58:57;;;;;;;87.43;55.90;;;;;;;-2.75;90.86;98501.08;1816681;77;21456;-60
2021/12/29 09:01:28;;;;;;;82.37;54.00;;;;;;;-2.73;90.79;98499.36;1813525;77;22111;-60
2021/12/29 09:03:55;;;;;;;77.90;49.88;;;;;;;-2.68;90.84;98500.14;1809980;77;20961;-60
2021/12/29 09:06:22;;;;;;;;;;;;;;;-2.65;90.81;98497.55;1800481;77;20895;-60
2021/12/29 09:08:49;;;;;;;53.80;32.42;;;;;;;-2.57;90.87;98499.56;1813507;77;20103;-60
2021/12/29 09:11:16;;;;;;;55.50;34.50;;;;;;;-2.53;90.86;98505.03;1813669;77;20949;-60
2021/12/29 09:13:44;;;;;;;55.65;32.63;;;;;;;-2.54;90.69;98502.07;1808383;77;21044;-60
2021/12/29 09:16:15;;;;;;;55.12;33.35;;;;;;;-2.52;90.65;98502.91;1820555;77;20845;-60
2021/12/29 09:18:42;;;;;;;50.90;31.75;;;;;;;-2.49;90.68;98502.86;1802284;77;20839;-60
2021/12/29 09:21:15;;;;;;;56.60;34.25;;;;;;;-2.48;90.57;98508.81;1813014;77;20987;-60
2021/12/29 09:23:43;;;;;;;55.30;32.45;;;;;;;-2.47;90.62;98502.38;1799154;77;21052;-60
2021/12/29 09:26:14;;;;;;;52.13;32.60;;;;;;;-2.40;90.68;98506.16;1753078;78;21653;-61
2021/12/29 09:28:45;;;;;;;64.37;36.73;;;;;;;-2.40;90.60;98501.04;1763927;79;21015;-60
2021/12/29 09:31:20;;;;;;;58.45;34.55;;;;;;;-2.35;90.70;98505.63;1767063;79;21026;-60
2021/12/29 09:33:59;;;;;;;62.45;33.88;;;;;;;-2.33;90.54;98503.90;1772569;79;21789;-60
2021/12/29 09:36:29;;;;;;;60.58;34.38;;;;;;;-2.32;90.52;98509.44;1753063;78;20920;-60
2021/12/29 09:39:00;;;;;;;65.47;36.03;;;;;;;-2.29;90.51;98503.00;1782299;79;21146;-60
2021/12/29 09:41:35;;;;;;;58.78;34.08;;;;;;;-2.34;90.34;98506.05;1795744;77;20888;-60
2021/12/29 09:44:09;;;;;;;57.83;33.48;;;;;;;-2.35;90.53;98510.33;1816479;77;20947;-60
2021/12/29 09:46:38;;;;;;;54.73;31.62;;;;;;;-2.32;90.47;98519.67;1800908;77;21472;-60
2021/12/29 09:49:10;;;;;;;59.33;35.63;;;;;;;-2.30;90.59;98518.78;1767279;77;20856;-60
2021/12/29 09:51:39;;;;;;;50.95;30.92;;;;;;;-2.26;90.57;98522.13;1810353;77;21072;-60
2021/12/29 09:54:10;;;;;;;58.73;34.53;;;;;;;-2.22;90.59;98522.92;1803393;77;20947;-59
2021/12/29 09:56:38;;;;;;;56.63;32.75;;;;;;;-2.23;90.46;98519.52;1806049;77;20923;-59
2021/12/29 09:59:06;;;;;;;55.70;35.20;;;;;;;-2.19;90.49;98518.59;1794186;77;21080;-59
2021/12/29 10:01:39;;;;;;;55.48;33.83;;;;;;;-2.19;90.49;98521.16;1799114;77;21004;-59
2021/12/29 10:04:07;;;;;;;53.33;33.45;;;;;;;-2.15;90.64;98535.59;1813453;77;21093;-59
2021/12/29 10:06:38;;;;;;;57.62;33.80;;;;;;;-2.11;90.61;98524.44;1751084;79;21002;-59
2021/12/29 10:09:13;;;;;;;57.40;35.78;;;;;;;-2.07;90.62;98522.27;1776323;79;21639;-59
2021/12/29 10:11:43;;;;;;;59.38;35.55;;;;;;;-2.05;90.55;98521.78;1789611;77;21013;-59
2021/12/29 10:14:18;;;;;;;58.00;35.50;;;;;;;-2.04;90.50;98528.61;1755280;79;20876;-60
2021/12/29 10:16:54;;;;;;;58.98;35.83;;;;;;;-1.98;90.56;98516.59;1741098;79;21175;-59
2021/12/29 10:19:23;;;;;;;56.98;34.48;;;;;;;-1.98;90.44;98508.92;1720997;80;21554;-59
2021/12/29 10:21:50;;;;;;;62.40;36.05;;;;;;;-1.95;90.56;98511.42;1797606;77;20972;-59
2021/12/29 10:24:19;;;;;;;55.83;34.45;;;;;;;-1.95;90.47;98511.42;1803088;77;20905;-59
2021/12/29 10:26:56;;;;;;;59.18;34.43;;;;;;;-1.93;90.45;98522.45;1817851;77;20859;-59
2021/12/29 10:29:26;;;;;;;63.17;35.98;;;;;;;-1.93;90.44;98514.78;1813213;77;21140;-59
2021/12/29 10:32:02;;;;;;;58.05;36.03;;;;;;;-1.95;90.33;98521.22;1812461;77;21073;-59
2021/12/29 10:34:32;;;;;;;61.75;35.17;;;;;;;-1.95;90.41;98521.66;1794898;77;21473;-59
2021/12/29 10:37:11;;;;;;;60.12;35.15;;;;;;;-1.92;90.38;98525.44;1793001;78;20967;-59
2021/12/29 10:39:44;;;;;;;56.65;35.25;;;;;;;-1.96;90.18;98517.39;1807998;77;20958;-59
2021/12/29 10:42:22;;;;;;;63.50;36.30;;;;;;;-2.06;90.24;98516.70;1799903;77;21118;-59
2021/12/29 10:44:59;;;;;;;59.55;36.08;;;;;;;-2.09;90.36;98517.59;1795504;77;20936;-59
2021/12/29 10:47:38;;;;;;;64.83;37.20;;;;;;;-2.08;90.50;98516.72;1800512;77;20911;-59
2021/12/29 10:50:27;;;;;;;88.35;53.78;;;;;;;-2.09;90.49;98517.59;1788457;77;21023;-59
2021/12/29 10:52:54;;;;;;;61.45;38.08;;;;;;;-2.10;90.48;98517.61;1756935;79;20893;-59
2021/12/29 10:55:36;;;;;;;72.97;45.70;;;;;;;-2.09;90.48;98517.59;1746362;80;21060;-59
2021/12/29 10:58:13;;;;;;;70.40;43.42;;;;;;;-2.11;90.47;98519.33;1802957;77;21677;-59
2021/12/29 11:00:51;;;;;;;74.00;48.13;;;;;;;-2.06;90.54;98520.10;1776444;79;20990;-59
2021/12/29 11:03:24;;;;;;;73.22;44.45;;;;;;;-2.06;90.51;98521.38;1797910;77;20982;-60
2021/12/29 11:05:59;;;;;;;65.90;38.25;;;;;;;-2.01;90.53;98520.48;1739554;78;21049;-60
2021/12/29 11:08:32;;;;;;;67.78;40.03;;;;;;;-1.97;90.49;98518.27;1763447;79;21381;-60
2021/12/29 11:11:10;;;;;;;71.37;46.20;;;;;;;-1.94;90.54;98521.62;1732248;80;21547;-59
2021/12/29 11:13:41;;;;;;;68.50;43.40;;;;;;;-1.90;90.51;98527.55;1743941;80;20890;-60
2021/12/29 11:16:21;;;;;;;74.35;47.83;;;;;;;-1.83;90.53;98524.00;1733099;80;20974;-60
2021/12/29 11:18:57;;;;;;;73.25;44.23;;;;;;;-1.76;90.56;98519.20;1728329;81;21022;-60
2021/12/29 11:21:35;;;;;;;59.85;39.23;;;;;;;-1.62;90.78;98514.70;1737397;80;20964;-60
2021/12/29 11:27:11;;;;;;;63.35;40.73;;;;;;;-1.30;90.63;98499.17;1617581;85;21045;-60
2021/12/29 11:30:03;;;;;;;65.83;40.03;;;;;;;-1.23;90.35;98504.59;1620347;84;20958;-61
2021/12/29 11:32:51;;;;;;;75.12;42.43;;;;;;;-1.20;90.24;98507.54;1618115;85;20973;-61
2021/12/29 11:35:23;;;;;;;66.20;39.20;;;;;;;-1.16;90.24;98516.39;1625407;86;21133;-61
2021/12/29 11:38:00;;;;;;;59.20;37.25;;;;;;;-1.09;90.37;98511.14;1611389;85;21147;-61
2021/12/29 11:40:38;;;;;;;53.08;34.27;;;;;;;-0.97;90.62;98517.33;1645679;84;22237;-61